Washington, DC (20536)

2:27 AM EST on March 04, 2015 (GMT -0500)
Eckington Pl, NE | Change Station
CLOSE
Current Station
Personal Weather Station
Location: Washington, DC
Elevation: 90 ft
Nearby Weather Stations
Active Advisory: Winter Storm Watch Active Notice: Public Information Statement

Elev 90 ft 38.91 °N, 77.01 °W | Updated 3 minutes ago

Overcast
Overcast
40.4 °F
Feels Like 40 °F
N
3.0
Wind Variable Wind from SSW
Gusts 10.0 mph

Today
High -- | Low -- °F
--% Chance of Precip.
Yesterday
High -- | Low -- °F
Precip. -- in
6:36 AM 6:03 PM
Waxing Gibbous, 98% visible
Pressure 29.84 in
Visibility 10.0 miles
Clouds Few 7000 ft
Mostly Cloudy 11000 ft
Overcast 20000 ft
Windchill 40 °F
Dew Point 36 °F
Humidity 85%
Rainfall -999.00 in
Snow Depth Not available.
UV 0 out of 12
Pollen 2.70 out of 12
Air Quality Not available.
Flu Activity Not available.
METAR KDCA 040652Z 20008KT 10SM FEW070 BKN110 OVC200 06/01 A2984 RMK AO2 SLP103 T00560011

More Conditions Fewer Conditions

Pressure 29.84 in
Visibility 10.0 miles
Clouds Few 7000 ft
Mostly Cloudy 11000 ft
Overcast 20000 ft
Windchill 40 °F
Dew Point 36 °F
Humidity 85%
Rainfall -999.00 in
Snow Depth Not available.
UV 0 out of 12
Pollen 2.70 out of 12
Air Quality Not available.
Flu Activity Not available.
METAR KDCA 040652Z 20008KT 10SM FEW070 BKN110 OVC200 06/01 A2984 RMK AO2 SLP103 T00560011

More Conditions Fewer Conditions

10-Day Weather Forecast

Almanac

Astronomy

Mar. 04, 2015 Rise Set
Actual Time
Civil Twilight
Nautical Twilight
Astronomical Twilight
Moon
Length of Visible Light
Length of Day
Tomorrow will be .
, % of the Moon is Illuminated

Today's Extremes

State Highs State Lows

Community

WunderPhotos

Upload Photos

1,802,402 photos uploaded!

WunderBlogs® & News

Nearby

Air Quality

  Air Quality AQ Index Pollutant
Not available.

Snow Depth

Station Depth Elevation

Earthquake Activity

City Distance Mag. Time & Date
Minimum magnitude displayed is 2.5.

Coastal Water Temperatures

Place Temperature

Nearby Weather Stations

Winter Storm Watch
Statement as of 1:57 AM EST on March 04, 2015

... Winter Storm Watch remains in effect from this evening through
Thursday evening...

* locations... Potomac Highlands and the northern Shenandoah
Valley.

* Hazard types... snow Wednesday night and Thursday... heavy at
times.

* Timing... rain changing to snow Wednesday evening. Snow may be
heavy at times Wednesday night into Thursday morning.

* Impacts... roads will be snow covered with visibility reduced
to near one-quarter mile at times. Traveling potentially will
be dangerous.

* Winds... northwest around 10 mph.

* Temperatures... 25 to 30 degrees.

Precautionary/preparedness actions...

A Winter Storm Watch means there is a potential for significant
snow... sleet... or ice accumulations that may impact travel.
Continue to monitor the latest forecasts.